Terminal Aerodrome Forecast
Issued by NWS North Platte, NE

Home | Current Version | Previous Version | Text Only | Print | Product List | Glossary On
Versions: 1 2 3 4 5 6 7 8 9 10 11 12 13 14 15 16 17
000
FTUS43 KLBF 010520
TAFLBF
TAF
KLBF 010520Z 0106/0206 35013KT P6SM OVC040
      TEMPO 0106/0110 5SM -RASN OVC020
     FM011500 36012KT P6SM OVC020
     FM011900 36013KT P6SM BKN035
     FM012200 01010KT P6SM BKN050
     FM020200 VRB06KT P6SM SCT080=

USA.gov is the U.S. government's official web portal to all federal, state and local government web resources and services.